Time;durP1;ratioP1;P1;durP2;ratioP2;P2;SDS_P1;SDS_P2;PMS_P1;PMS_P2;Temp;Humidity;BMP_temperature;BMP_pressure;BME280_temperature;BME280_humidity;BME280_pressure;Samples;Min_cycle;Max_cycle;Signal;HPM_P1;HPM_P2
2024/01/21 00:00:49;;;;;;;0.45;0.45;;;1.60;99.90;;;;;;5023475;28;20049;-69
2024/01/21 00:03:15;;;;;;;0.10;0.10;;;1.60;99.90;;;;;;5023426;28;20068;-69
2024/01/21 00:05:40;;;;;;;0.15;0.15;;;1.60;99.90;;;;;;5020428;28;20045;-69
2024/01/21 00:08:06;;;;;;;4.03;1.17;;;1.50;99.90;;;;;;5028331;28;20037;-69
2024/01/21 00:10:31;;;;;;;0.65;0.65;;;1.50;99.90;;;;;;5026834;28;20068;-69
2024/01/21 00:12:57;;;;;;;0.38;0.38;;;1.50;99.90;;;;;;5024719;28;20092;-69
2024/01/21 00:15:23;;;;;;;1.27;1.27;;;1.50;99.90;;;;;;5029247;28;20056;-69
2024/01/21 00:17:48;;;;;;;0.15;0.15;;;1.50;99.90;;;;;;5014639;28;20579;-69
2024/01/21 00:20:14;;;;;;;0.20;0.20;;;1.50;99.90;;;;;;5022494;28;20064;-69
2024/01/21 00:22:40;;;;;;;0.20;0.20;;;1.50;99.90;;;;;;5026078;28;20072;-69
2024/01/21 00:25:09;;;;;;;0.15;0.15;;;1.40;99.90;;;;;;5024420;28;20094;-69
2024/01/21 00:27:35;;;;;;;0.40;0.40;;;1.50;99.90;;;;;;5022432;28;20199;-69
2024/01/21 00:30:01;;;;;;;0.82;0.82;;;1.50;99.90;;;;;;5028739;28;20401;-69
2024/01/21 00:32:26;;;;;;;0.20;0.20;;;1.40;99.90;;;;;;5027344;28;20037;-69
2024/01/21 00:34:52;;;;;;;0.10;0.10;;;1.50;99.90;;;;;;5019288;28;20120;-69
2024/01/21 00:37:17;;;;;;;5.28;0.98;;;1.40;99.90;;;;;;5027683;28;20041;-69
2024/01/21 00:39:43;;;;;;;0.57;0.57;;;1.40;99.90;;;;;;5029669;28;20796;-69
2024/01/21 00:42:08;;;;;;;0.40;0.40;;;1.40;99.90;;;;;;5026708;28;20045;-69
2024/01/21 00:44:34;;;;;;;3.92;3.10;;;1.40;99.90;;;;;;5026305;28;20564;-69
2024/01/21 00:47:00;;;;;;;0.88;0.82;;;1.40;99.90;;;;;;5016634;28;20107;-69
2024/01/21 00:49:25;;;;;;;0.30;0.30;;;1.40;99.90;;;;;;5025853;28;20447;-69
2024/01/21 00:51:52;;;;;;;0.68;0.68;;;1.40;99.90;;;;;;5021317;28;20460;-68
2024/01/21 00:54:17;;;;;;;0.40;0.40;;;1.40;99.90;;;;;;5028599;28;20137;-69
2024/01/21 00:56:43;;;;;;;0.10;0.10;;;1.40;99.90;;;;;;5023122;28;20538;-69
2024/01/21 00:59:08;;;;;;;0.20;0.20;;;1.40;99.90;;;;;;5029418;28;20052;-68
2024/01/21 01:01:37;;;;;;;1.67;1.38;;;1.50;99.90;;;;;;5028188;28;20048;-69
2024/01/21 01:04:04;;;;;;;0.30;0.30;;;1.50;99.90;;;;;;5022125;28;20053;-69
2024/01/21 01:06:30;;;;;;;1.25;1.25;;;1.50;99.90;;;;;;5023133;28;20367;-69
2024/01/21 01:08:55;;;;;;;0.20;0.20;;;1.50;99.90;;;;;;5018390;28;20036;-69
2024/01/21 01:11:21;;;;;;;0.20;0.20;;;1.60;99.90;;;;;;5021688;28;20057;-69
2024/01/21 01:13:47;;;;;;;0.20;0.20;;;1.60;99.90;;;;;;5028404;28;20056;-69
2024/01/21 01:16:13;;;;;;;0.22;0.22;;;1.60;99.90;;;;;;5021904;28;20478;-69
2024/01/21 01:18:38;;;;;;;0.55;0.55;;;1.60;99.90;;;;;;5023144;28;20038;-69
2024/01/21 01:21:04;;;;;;;0.20;0.20;;;1.60;99.90;;;;;;5026908;28;20378;-69
2024/01/21 01:23:29;;;;;;;0.40;0.40;;;1.60;99.90;;;;;;5027260;28;20050;-69
2024/01/21 01:25:55;;;;;;;0.13;0.13;;;1.60;99.90;;;;;;5024682;28;20560;-69
2024/01/21 01:28:21;;;;;;;1.25;1.15;;;1.60;99.90;;;;;;5022630;28;20125;-69
2024/01/21 01:30:46;;;;;;;0.30;0.30;;;1.60;99.90;;;;;;5041269;28;20049;-69
2024/01/21 01:33:12;;;;;;;0.28;0.28;;;1.60;99.90;;;;;;5027056;28;20519;-69
2024/01/21 01:35:37;;;;;;;0.28;0.28;;;1.60;99.90;;;;;;5028437;28;20116;-69
2024/01/21 01:38:05;;;;;;;0.20;0.20;;;1.60;99.90;;;;;;5023618;28;20568;-69
2024/01/21 01:40:31;;;;;;;0.30;0.30;;;1.60;99.90;;;;;;5022071;28;20045;-69
2024/01/21 01:42:59;;;;;;;0.90;0.90;;;1.60;99.90;;;;;;5027903;28;20051;-69
2024/01/21 01:45:24;;;;;;;0.10;0.10;;;1.60;99.90;;;;;;5027981;28;20124;-69
2024/01/21 01:47:50;;;;;;;0.30;0.30;;;1.60;99.90;;;;;;5017196;28;20140;-69
2024/01/21 01:50:17;;;;;;;0.10;0.10;;;1.50;99.90;;;;;;5023707;28;20059;-69
2024/01/21 01:52:43;;;;;;;0.20;0.20;;;1.50;99.90;;;;;;5023850;28;20053;-69
2024/01/21 01:55:09;;;;;;;0.20;0.20;;;1.50;99.90;;;;;;5022380;28;20090;-69
2024/01/21 01:57:36;;;;;;;0.95;0.95;;;1.40;99.90;;;;;;5025285;28;20444;-68
2024/01/21 02:00:02;;;;;;;0.63;0.60;;;1.40;99.90;;;;;;5026439;28;20076;-69
2024/01/21 02:02:28;;;;;;;0.10;0.10;;;1.50;99.90;;;;;;5022900;28;20041;-69
2024/01/21 02:04:54;;;;;;;0.20;0.20;;;1.50;99.90;;;;;;5037995;28;20485;-69
2024/01/21 02:07:20;;;;;;;0.20;0.20;;;1.40;99.90;;;;;;5020251;28;20049;-69
2024/01/21 02:09:46;;;;;;;0.30;0.30;;;1.40;99.90;;;;;;5022096;28;20500;-68
2024/01/21 02:12:13;;;;;;;8.90;2.08;;;1.40;99.90;;;;;;5026111;28;20041;-68
2024/01/21 02:14:38;;;;;;;0.20;0.20;;;1.40;99.90;;;;;;5013984;28;20064;-68
2024/01/21 02:17:04;;;;;;;1.42;1.42;;;1.40;99.90;;;;;;5028312;28;20473;-68
2024/01/21 02:19:30;;;;;;;0.10;0.10;;;1.40;99.90;;;;;;5021449;28;20505;-69
2024/01/21 02:21:56;;;;;;;0.20;0.20;;;1.40;99.90;;;;;;5023929;28;20045;-68
2024/01/21 02:24:28;;;;;;;0.10;0.10;;;1.40;99.90;;;;;;5026983;28;20584;-68
2024/01/21 02:26:53;;;;;;;0.38;0.38;;;1.40;99.90;;;;;;5025718;28;20100;-68
2024/01/21 02:29:19;;;;;;;0.68;0.68;;;1.40;99.90;;;;;;5017457;28;20401;-68
2024/01/21 02:31:44;;;;;;;13.15;1.23;;;1.40;99.90;;;;;;5024791;28;20138;-68
2024/01/21 02:34:10;;;;;;;0.10;0.10;;;1.50;99.90;;;;;;5021588;28;20045;-68
2024/01/21 02:36:35;;;;;;;0.40;0.40;;;1.50;99.90;;;;;;5027418;28;20045;-69
2024/01/21 02:39:01;;;;;;;1.55;0.95;;;1.50;99.90;;;;;;5026914;28;20050;-69
2024/01/21 02:41:27;;;;;;;0.95;0.95;;;1.40;99.90;;;;;;5042923;28;20046;-68
2024/01/21 02:43:52;;;;;;;1.75;1.65;;;1.50;99.90;;;;;;5017358;28;20041;-68
2024/01/21 02:46:18;;;;;;;0.10;0.10;;;1.50;99.90;;;;;;5036698;28;20041;-68
2024/01/21 02:48:44;;;;;;;0.15;0.15;;;1.50;99.90;;;;;;5022294;28;20061;-68
2024/01/21 02:51:15;;;;;;;0.10;0.10;;;1.50;99.90;;;;;;5022102;28;20103;-68
2024/01/21 02:53:41;;;;;;;0.20;0.20;;;1.50;99.90;;;;;;5023685;28;20167;-68
2024/01/21 02:56:07;;;;;;;0.10;0.10;;;1.50;99.90;;;;;;5023761;28;20474;-68
2024/01/21 02:58:33;;;;;;;0.50;0.50;;;1.50;99.90;;;;;;5029169;28;20091;-68
2024/01/21 03:00:58;;;;;;;0.20;0.20;;;1.50;99.90;;;;;;5029883;28;20060;-68
2024/01/21 03:03:24;;;;;;;0.77;0.77;;;1.50;99.90;;;;;;5026978;28;20047;-68
2024/01/21 03:05:49;;;;;;;0.50;0.50;;;1.60;99.90;;;;;;5027473;28;20482;-68
2024/01/21 03:08:15;;;;;;;0.10;0.10;;;1.50;99.90;;;;;;5022111;28;20140;-68
2024/01/21 03:10:41;;;;;;;0.20;0.20;;;1.50;99.90;;;;;;5026667;28;20053;-69
2024/01/21 03:13:09;;;;;;;0.20;0.20;;;1.60;99.90;;;;;;5031683;28;20085;-68
2024/01/21 03:15:35;;;;;;;0.20;0.20;;;1.60;99.90;;;;;;5024673;28;20033;-68
2024/01/21 03:18:00;;;;;;;0.20;0.20;;;1.60;99.90;;;;;;5025570;28;20053;-68
2024/01/21 03:20:26;;;;;;;0.52;0.52;;;1.50;99.90;;;;;;5042316;28;20133;-68
2024/01/21 03:22:52;;;;;;;0.47;0.47;;;1.50;99.90;;;;;;5029110;28;20135;-68
2024/01/21 03:25:17;;;;;;;0.20;0.20;;;1.50;99.90;;;;;;5024893;28;20486;-68
2024/01/21 03:27:43;;;;;;;0.25;0.25;;;1.50;99.90;;;;;;5024238;28;20045;-68
2024/01/21 03:30:09;;;;;;;0.15;0.15;;;1.50;99.90;;;;;;5034295;28;20091;-68
2024/01/21 03:32:34;;;;;;;0.52;0.52;;;1.50;99.90;;;;;;5028696;28;20049;-68
2024/01/21 03:35:00;;;;;;;0.17;0.17;;;1.50;99.90;;;;;;5024180;28;20132;-68
2024/01/21 03:37:25;;;;;;;0.20;0.20;;;1.50;99.90;;;;;;5021320;28;20567;-68
2024/01/21 03:39:51;;;;;;;0.57;0.57;;;1.50;99.90;;;;;;5024954;28;20610;-68
2024/01/21 03:42:17;;;;;;;0.40;0.40;;;1.50;99.90;;;;;;5031344;28;20061;-68
2024/01/21 03:44:42;;;;;;;0.20;0.20;;;1.50;99.90;;;;;;5021795;28;20077;-68
2024/01/21 03:47:08;;;;;;;1.38;1.17;;;1.50;99.90;;;;;;5030212;28;20042;-68
2024/01/21 03:49:34;;;;;;;0.15;0.15;;;1.50;99.90;;;;;;5029215;28;20124;-68
2024/01/21 03:51:59;;;;;;;0.25;0.25;;;1.50;99.90;;;;;;5029914;28;20120;-68
2024/01/21 03:54:25;;;;;;;1.73;1.38;;;1.50;99.90;;;;;;5022394;28;20045;-68
2024/01/21 03:56:50;;;;;;;0.30;0.30;;;1.60;99.90;;;;;;5022560;28;20102;-68
2024/01/21 03:59:16;;;;;;;0.30;0.30;;;1.60;99.90;;;;;;5029224;28;20048;-68
2024/01/21 04:01:43;;;;;;;0.10;0.10;;;1.60;99.90;;;;;;5029386;28;20048;-68
2024/01/21 04:04:10;;;;;;;0.40;0.40;;;1.60;99.90;;;;;;5023944;28;20378;-68
2024/01/21 04:06:40;;;;;;;0.10;0.10;;;1.60;99.90;;;;;;5024193;28;20041;-68
2024/01/21 04:09:05;;;;;;;0.20;0.20;;;1.60;99.90;;;;;;5025681;28;20106;-68
2024/01/21 04:11:31;;;;;;;0.10;0.10;;;1.70;99.90;;;;;;5028031;28;20053;-68
2024/01/21 04:13:56;;;;;;;1.15;1.05;;;1.70;99.90;;;;;;5039528;28;20089;-68
2024/01/21 04:16:22;;;;;;;0.15;0.15;;;1.80;99.90;;;;;;5026778;28;20041;-68
2024/01/21 04:18:47;;;;;;;0.10;0.10;;;1.80;99.90;;;;;;5024991;28;20676;-68
2024/01/21 04:21:13;;;;;;;0.25;0.25;;;1.90;99.90;;;;;;5027360;28;20088;-68
2024/01/21 04:23:39;;;;;;;0.17;0.17;;;1.90;99.90;;;;;;5027771;28;20540;-68
2024/01/21 04:26:05;;;;;;;0.45;0.45;;;2.00;99.90;;;;;;5023573;28;20053;-68
2024/01/21 04:28:30;;;;;;;0.17;0.17;;;2.00;99.90;;;;;;5020275;28;20378;-68
2024/01/21 04:30:56;;;;;;;0.88;0.88;;;2.00;99.90;;;;;;5028857;28;20128;-68
2024/01/21 04:33:22;;;;;;;0.10;0.10;;;2.10;99.90;;;;;;5025033;28;20061;-68
2024/01/21 04:35:47;;;;;;;0.20;0.20;;;2.10;99.90;;;;;;5024415;28;20044;-68
2024/01/21 04:38:13;;;;;;;0.10;0.10;;;2.10;99.90;;;;;;5027718;28;20531;-68
2024/01/21 04:40:39;;;;;;;0.20;0.20;;;2.20;99.90;;;;;;5029339;28;20397;-68
2024/01/21 04:43:04;;;;;;;0.10;0.10;;;2.20;99.90;;;;;;5022679;28;20049;-68
2024/01/21 04:45:30;;;;;;;0.50;0.40;;;2.20;99.90;;;;;;5022152;28;20317;-68
2024/01/21 04:47:56;;;;;;;0.30;0.30;;;2.20;99.90;;;;;;5029596;28;20048;-68
2024/01/21 04:50:21;;;;;;;0.20;0.20;;;2.30;99.90;;;;;;5021808;28;20053;-68
2024/01/21 04:52:47;;;;;;;0.10;0.10;;;2.30;99.90;;;;;;5026547;28;20157;-68
2024/01/21 04:55:13;;;;;;;1.13;0.70;;;2.30;99.90;;;;;;5020524;28;20115;-68
2024/01/21 04:57:39;;;;;;;1.52;1.45;;;2.30;99.90;;;;;;5022383;28;20508;-68
2024/01/21 05:00:05;;;;;;;0.63;0.63;;;2.40;99.90;;;;;;5029715;28;20052;-68
2024/01/21 05:02:31;;;;;;;0.10;0.10;;;2.40;99.90;;;;;;5019486;28;20692;-68
2024/01/21 05:04:57;;;;;;;0.20;0.20;;;2.30;99.90;;;;;;5028212;28;20078;-68
2024/01/21 05:07:22;;;;;;;3.65;1.75;;;2.30;99.90;;;;;;5030085;28;20503;-68
2024/01/21 05:09:48;;;;;;;0.10;0.10;;;2.40;99.90;;;;;;5014836;28;20085;-68
2024/01/21 05:12:14;;;;;;;0.10;0.10;;;2.40;99.90;;;;;;5022056;28;20049;-68
2024/01/21 05:14:39;;;;;;;0.10;0.10;;;2.40;99.90;;;;;;5022801;28;20045;-68
2024/01/21 05:17:06;;;;;;;0.35;0.35;;;2.40;99.90;;;;;;5020007;28;20068;-68
2024/01/21 05:19:31;;;;;;;1.13;1.13;;;2.40;99.90;;;;;;5025873;28;20393;-68
2024/01/21 05:21:57;;;;;;;0.10;0.10;;;2.40;99.90;;;;;;5024240;28;20046;-68
2024/01/21 05:24:22;;;;;;;0.30;0.30;;;2.40;99.90;;;;;;5022537;28;20423;-68
2024/01/21 05:26:48;;;;;;;0.55;0.38;;;2.40;99.90;;;;;;5028896;28;20963;-68
2024/01/21 05:29:13;;;;;;;0.10;0.10;;;2.40;99.90;;;;;;5024658;28;20046;-68
2024/01/21 05:31:39;;;;;;;0.30;0.30;;;2.40;99.90;;;;;;5025048;28;20029;-68
2024/01/21 05:34:05;;;;;;;0.20;0.20;;;2.40;99.90;;;;;;5021913;28;20060;-68
2024/01/21 05:36:30;;;;;;;0.30;0.30;;;2.40;99.90;;;;;;5016359;28;20051;-68
2024/01/21 05:38:56;;;;;;;0.10;0.10;;;2.40;99.90;;;;;;5027365;28;20060;-68
2024/01/21 05:41:21;;;;;;;0.38;0.38;;;2.40;99.90;;;;;;5029302;28;20095;-68
2024/01/21 05:43:47;;;;;;;0.30;0.30;;;2.40;99.90;;;;;;5024463;28;20045;-68
2024/01/21 05:46:13;;;;;;;0.10;0.10;;;2.40;99.90;;;;;;5027657;28;20038;-68
2024/01/21 05:48:38;;;;;;;0.10;0.10;;;2.40;99.90;;;;;;5031908;28;22084;-68
2024/01/21 05:51:04;;;;;;;0.75;0.75;;;2.30;99.90;;;;;;5021545;28;20041;-68
2024/01/21 05:53:29;;;;;;;0.38;0.38;;;2.40;99.90;;;;;;5020552;28;20048;-68
2024/01/21 05:55:55;;;;;;;0.10;0.10;;;2.40;99.90;;;;;;5021034;28;20080;-68
2024/01/21 05:58:20;;;;;;;0.10;0.10;;;2.30;99.90;;;;;;5027855;28;20045;-68
2024/01/21 06:00:46;;;;;;;0.20;0.20;;;2.30;99.90;;;;;;5028623;28;20045;-68
2024/01/21 06:03:11;;;;;;;0.20;0.20;;;2.30;99.90;;;;;;5025299;28;20077;-68
2024/01/21 06:05:37;;;;;;;0.20;0.20;;;2.30;99.90;;;;;;5017678;28;20046;-67
2024/01/21 06:08:03;;;;;;;0.10;0.10;;;2.30;99.90;;;;;;5022600;28;20477;-68
2024/01/21 06:10:28;;;;;;;0.10;0.10;;;2.20;99.90;;;;;;5021133;28;20054;-68
2024/01/21 06:12:54;;;;;;;0.10;0.10;;;2.30;99.90;;;;;;5018909;28;20046;-68
2024/01/21 06:15:19;;;;;;;0.13;0.13;;;2.30;99.90;;;;;;5019022;28;20037;-68
2024/01/21 06:17:45;;;;;;;0.57;0.57;;;2.20;99.90;;;;;;5026923;28;20064;-68
2024/01/21 06:20:12;;;;;;;0.10;0.10;;;2.20;99.90;;;;;;5022269;28;20037;-68
2024/01/21 06:22:37;;;;;;;6.60;2.15;;;2.20;99.90;;;;;;5022052;28;20072;-68
2024/01/21 06:25:03;;;;;;;1.60;1.25;;;2.20;99.90;;;;;;5023246;28;20041;-68
2024/01/21 06:27:29;;;;;;;0.77;0.40;;;2.20;99.90;;;;;;5025851;28;20349;-68
2024/01/21 06:29:55;;;;;;;0.30;0.30;;;2.20;99.90;;;;;;5027946;28;20041;-68
2024/01/21 06:32:20;;;;;;;0.10;0.10;;;2.20;99.90;;;;;;5026870;28;20505;-68
2024/01/21 06:34:46;;;;;;;0.17;0.17;;;2.20;99.90;;;;;;5029505;28;20045;-68
2024/01/21 06:37:11;;;;;;;0.10;0.10;;;2.20;99.90;;;;;;5024803;28;20072;-68
2024/01/21 06:39:37;;;;;;;0.20;0.20;;;2.20;99.90;;;;;;5031349;28;20071;-68
2024/01/21 06:42:03;;;;;;;0.32;0.32;;;2.20;99.90;;;;;;5026091;28;20132;-68
2024/01/21 06:44:28;;;;;;;0.17;0.17;;;2.30;99.90;;;;;;5024173;28;20034;-68
2024/01/21 06:46:54;;;;;;;1.30;1.20;;;2.20;99.90;;;;;;5029809;28;20115;-68
2024/01/21 06:49:19;;;;;;;2.00;0.98;;;2.30;99.90;;;;;;5025938;28;20030;-68
2024/01/21 06:51:53;;;;;;;0.13;0.13;;;2.20;99.90;;;;;;5029779;28;20049;-68
2024/01/21 06:54:19;;;;;;;1.20;1.17;;;2.20;99.90;;;;;;5025475;28;20678;-68
2024/01/21 06:56:45;;;;;;;0.80;0.80;;;2.30;99.90;;;;;;5026521;28;20128;-68
2024/01/21 06:59:10;;;;;;;0.10;0.10;;;2.20;99.90;;;;;;5024344;28;20041;-68
2024/01/21 07:01:36;;;;;;;0.50;0.50;;;2.30;99.90;;;;;;5021137;28;20038;-68
2024/01/21 07:04:02;;;;;;;0.10;0.10;;;2.30;99.90;;;;;;5032109;28;20037;-68
2024/01/21 07:06:28;;;;;;;0.38;0.38;;;2.30;99.90;;;;;;5030110;28;20045;-68
2024/01/21 07:08:53;;;;;;;0.32;0.32;;;2.30;99.90;;;;;;5029842;28;20045;-68
2024/01/21 07:11:19;;;;;;;0.45;0.45;;;2.20;99.90;;;;;;5023469;28;20044;-68
2024/01/21 07:13:45;;;;;;;0.38;0.38;;;2.30;99.90;;;;;;5031568;28;20119;-68
2024/01/21 07:16:10;;;;;;;0.45;0.45;;;2.30;99.90;;;;;;5024784;28;20045;-68
2024/01/21 07:18:36;;;;;;;1.27;1.20;;;2.30;99.90;;;;;;5020636;28;20041;-68
2024/01/21 07:21:02;;;;;;;7.00;5.93;;;2.30;99.90;;;;;;5024835;28;20568;-68
2024/01/21 07:23:28;;;;;;;0.20;0.20;;;2.30;99.90;;;;;;5021637;28;20037;-68
2024/01/21 07:25:53;;;;;;;3.80;0.82;;;2.30;99.90;;;;;;5046486;28;20047;-68
2024/01/21 07:28:19;;;;;;;0.30;0.30;;;2.20;99.90;;;;;;5026506;28;20045;-68
2024/01/21 07:30:45;;;;;;;1.75;1.65;;;2.30;99.90;;;;;;5027371;28;20042;-68
2024/01/21 07:33:10;;;;;;;0.20;0.20;;;2.30;99.90;;;;;;5023399;28;20046;-68
2024/01/21 07:35:36;;;;;;;0.20;0.20;;;2.30;99.90;;;;;;5028281;28;20425;-68
2024/01/21 07:38:02;;;;;;;0.10;0.10;;;2.30;99.90;;;;;;5045914;28;20041;-68
2024/01/21 07:40:27;;;;;;;0.20;0.20;;;2.30;99.90;;;;;;5026824;28;20073;-67
2024/01/21 07:42:53;;;;;;;0.95;0.95;;;2.30;99.90;;;;;;5039506;28;20045;-68
2024/01/21 07:45:19;;;;;;;0.20;0.20;;;2.30;99.90;;;;;;5030376;28;20037;-68
2024/01/21 07:47:44;;;;;;;0.10;0.10;;;2.40;99.90;;;;;;5031234;28;20048;-68
2024/01/21 07:50:10;;;;;;;0.73;0.73;;;2.40;99.90;;;;;;5019945;28;20488;-68
2024/01/21 07:52:36;;;;;;;0.30;0.30;;;2.40;99.90;;;;;;5044706;28;20056;-68
2024/01/21 07:55:02;;;;;;;0.38;0.38;;;2.30;99.90;;;;;;5029714;28;20095;-68
2024/01/21 07:57:28;;;;;;;0.20;0.20;;;2.30;99.90;;;;;;5026098;28;20050;-68
2024/01/21 07:59:53;;;;;;;0.10;0.10;;;2.30;99.90;;;;;;5014701;28;20055;-67
2024/01/21 08:02:19;;;;;;;1.08;1.08;;;2.30;99.90;;;;;;5020948;28;20439;-68
2024/01/21 08:04:44;;;;;;;0.35;0.35;;;2.30;99.90;;;;;;5026534;28;20033;-68
2024/01/21 08:07:10;;;;;;;2.83;2.47;;;2.20;99.90;;;;;;5030278;28;20060;-67
2024/01/21 08:09:36;;;;;;;0.40;0.40;;;2.30;99.90;;;;;;5029144;28;20060;-68
2024/01/21 08:12:01;;;;;;;0.30;0.30;;;2.30;99.90;;;;;;5021926;28;20045;-67
2024/01/21 08:14:27;;;;;;;0.10;0.10;;;2.30;99.90;;;;;;5021974;28;20040;-68
2024/01/21 08:16:53;;;;;;;0.73;0.73;;;2.30;99.90;;;;;;5022550;28;20114;-68
2024/01/21 08:19:20;;;;;;;0.30;0.30;;;2.30;99.90;;;;;;5028004;28;20112;-68
2024/01/21 08:21:46;;;;;;;0.15;0.15;;;2.30;99.90;;;;;;5015682;28;20937;-68
2024/01/21 08:24:12;;;;;;;0.10;0.10;;;2.30;99.90;;;;;;5042871;28;20128;-68
2024/01/21 08:26:38;;;;;;;0.45;0.45;;;2.30;99.90;;;;;;5029451;28;20132;-68
2024/01/21 08:29:04;;;;;;;0.20;0.20;;;2.30;99.90;;;;;;5029729;28;20457;-68
2024/01/21 08:31:30;;;;;;;0.20;0.20;;;2.30;99.90;;;;;;5027620;28;20128;-68
2024/01/21 08:33:56;;;;;;;0.10;0.10;;;2.30;99.90;;;;;;5025796;28;20381;-68
2024/01/21 08:36:21;;;;;;;0.10;0.10;;;2.30;99.90;;;;;;5024523;28;20073;-68
2024/01/21 08:38:47;;;;;;;0.15;0.15;;;2.30;99.90;;;;;;5029354;28;20136;-68
2024/01/21 08:41:12;;;;;;;4.88;0.45;;;2.40;99.90;;;;;;5018999;28;20042;-68
2024/01/21 08:43:38;;;;;;;0.20;0.20;;;2.40;99.90;;;;;;5027193;28;20075;-68
2024/01/21 08:46:03;;;;;;;0.20;0.20;;;2.30;99.90;;;;;;5030659;28;20492;-68
2024/01/21 08:48:29;;;;;;;0.55;0.55;;;2.30;99.90;;;;;;5017227;28;20103;-68
2024/01/21 08:50:55;;;;;;;0.98;0.75;;;2.40;99.90;;;;;;5022696;28;20048;-68
2024/01/21 08:53:20;;;;;;;0.75;0.75;;;2.40;99.90;;;;;;5021732;28;20468;-68
2024/01/21 08:55:46;;;;;;;0.25;0.25;;;2.40;99.90;;;;;;5026759;28;20048;-68
2024/01/21 08:58:12;;;;;;;0.77;0.77;;;2.40;99.90;;;;;;5028566;28;20067;-68
2024/01/21 09:00:37;;;;;;;0.30;0.30;;;2.50;99.90;;;;;;5018315;28;20045;-68
2024/01/21 09:03:04;;;;;;;0.15;0.15;;;2.50;99.90;;;;;;5022721;28;20493;-67
2024/01/21 09:05:30;;;;;;;0.10;0.10;;;2.60;99.90;;;;;;5028781;28;20561;-68
2024/01/21 09:07:55;;;;;;;0.28;0.28;;;2.60;99.90;;;;;;5025240;28;20049;-68
2024/01/21 09:10:21;;;;;;;0.10;0.10;;;2.70;99.90;;;;;;5023788;28;20048;-68
2024/01/21 09:12:47;;;;;;;0.95;0.95;;;2.70;99.90;;;;;;5029263;28;20041;-68
2024/01/21 09:15:13;;;;;;;0.32;0.32;;;2.80;99.90;;;;;;5025800;28;20048;-67
2024/01/21 09:17:39;;;;;;;0.30;0.30;;;2.80;99.90;;;;;;5024684;28;20044;-68
2024/01/21 09:20:05;;;;;;;0.30;0.30;;;2.90;99.90;;;;;;5027401;28;20045;-68
2024/01/21 09:22:30;;;;;;;0.35;0.35;;;2.90;99.90;;;;;;5023198;28;20041;-68
2024/01/21 09:24:56;;;;;;;0.20;0.20;;;2.90;99.90;;;;;;5017922;28;20421;-68
2024/01/21 09:27:23;;;;;;;0.32;0.32;;;3.00;99.90;;;;;;5025283;28;20080;-68
2024/01/21 09:29:48;;;;;;;0.10;0.10;;;2.90;99.90;;;;;;5026812;28;20507;-68
2024/01/21 09:32:14;;;;;;;0.30;0.30;;;3.00;99.90;;;;;;5025674;28;20041;-68
2024/01/21 09:34:39;;;;;;;0.30;0.30;;;3.00;99.90;;;;;;5019193;28;20041;-68
2024/01/21 09:37:08;;;;;;;0.10;0.10;;;2.90;99.90;;;;;;5029256;28;20048;-68
2024/01/21 09:39:33;;;;;;;0.10;0.10;;;2.90;99.90;;;;;;5019742;28;20570;-68
2024/01/21 09:41:59;;;;;;;1.45;0.90;;;3.00;99.90;;;;;;5029940;28;20057;-68
2024/01/21 09:44:27;;;;;;;0.10;0.10;;;3.00;99.90;;;;;;5015892;28;20056;-68
2024/01/21 09:46:55;;;;;;;0.40;0.40;;;3.00;99.90;;;;;;5020505;28;20042;-68
2024/01/21 09:49:21;;;;;;;1.52;0.40;;;3.10;99.90;;;;;;5022035;28;20044;-68
2024/01/21 09:51:49;;;;;;;0.20;0.20;;;3.10;99.90;;;;;;5026797;28;20732;-68
2024/01/21 09:54:14;;;;;;;0.55;0.55;;;3.10;99.90;;;;;;5025067;28;20037;-68
2024/01/21 09:56:41;;;;;;;0.60;0.60;;;3.10;99.90;;;;;;5048551;28;20262;-68
2024/01/21 09:59:09;;;;;;;0.98;0.98;;;3.10;99.90;;;;;;5025498;28;20099;-68
2024/01/21 10:01:40;;;;;;;0.10;0.10;;;3.10;99.90;;;;;;5022055;28;20164;-68
2024/01/21 10:04:06;;;;;;;0.20;0.20;;;3.10;99.90;;;;;;5015141;28;20037;-65
2024/01/21 10:06:33;;;;;;;0.40;0.40;;;3.10;99.90;;;;;;5023211;28;20041;-66
2024/01/21 10:09:21;;;;;;;0.30;0.30;;;3.10;99.90;;;;;;5020782;28;20056;-66
2024/01/21 10:12:05;;;;;;;0.10;0.10;;;3.20;99.90;;;;;;5017409;28;20136;-66
2024/01/21 10:14:33;;;;;;;0.70;0.43;;;3.20;99.90;;;;;;5023961;28;20052;-66
2024/01/21 10:17:02;;;;;;;0.10;0.10;;;3.20;99.90;;;;;;5027979;28;20094;-66
2024/01/21 10:19:33;;;;;;;0.45;0.45;;;3.20;99.90;;;;;;5022991;28;20069;-66
2024/01/21 10:22:15;;;;;;;0.10;0.10;;;3.20;99.90;;;;;;5021480;28;20064;-66
2024/01/21 10:24:42;;;;;;;0.20;0.20;;;3.30;99.90;;;;;;5023147;28;20050;-66
2024/01/21 10:27:08;;;;;;;0.20;0.20;;;3.20;99.90;;;;;;5033714;28;20138;-66
2024/01/21 10:29:42;;;;;;;0.10;0.10;;;3.30;99.90;;;;;;5032459;28;20037;-65
2024/01/21 10:32:09;;;;;;;0.20;0.20;;;3.30;99.90;;;;;;5026148;28;20053;-65
2024/01/21 10:34:39;;;;;;;0.20;0.20;;;3.30;99.90;;;;;;5010817;28;20041;-65
2024/01/21 10:37:05;;;;;;;0.10;0.10;;;3.30;99.90;;;;;;5036676;28;20528;-65
2024/01/21 10:39:34;;;;;;;0.10;0.10;;;3.40;99.90;;;;;;5033879;28;20041;-65
2024/01/21 10:42:00;;;;;;;0.10;0.10;;;3.30;99.90;;;;;;5022058;28;20046;-65
2024/01/21 10:44:29;;;;;;;0.40;0.40;;;3.40;99.90;;;;;;5019857;28;20485;-65
2024/01/21 10:46:55;;;;;;;0.65;0.52;;;3.40;99.90;;;;;;5024899;28;20132;-65
2024/01/21 10:49:21;;;;;;;0.63;0.63;;;3.40;99.90;;;;;;5025750;28;20072;-66
2024/01/21 10:51:51;;;;;;;1.17;1.17;;;3.50;99.90;;;;;;5021732;28;20037;-66
2024/01/21 10:54:16;;;;;;;0.17;0.17;;;3.50;99.90;;;;;;5021132;28;20056;-66
2024/01/21 10:56:43;;;;;;;0.35;0.35;;;3.50;99.90;;;;;;5020344;28;20057;-65
2024/01/21 10:59:10;;;;;;;1.45;1.27;;;3.50;99.90;;;;;;5022133;28;20049;-65
2024/01/21 11:01:39;;;;;;;9.40;2.47;;;3.50;99.90;;;;;;5033323;28;20371;-66
2024/01/21 11:04:10;;;;;;;1.35;1.25;;;3.50;99.90;;;;;;5015540;28;20041;-66
2024/01/21 11:06:35;;;;;;;0.20;0.20;;;3.50;99.90;;;;;;5017291;28;20056;-66
2024/01/21 11:09:03;;;;;;;0.20;0.20;;;3.60;99.90;;;;;;5027090;28;20038;-66
2024/01/21 11:11:29;;;;;;;0.10;0.10;;;3.50;99.90;;;;;;5027222;28;20042;-66
2024/01/21 11:13:56;;;;;;;0.20;0.20;;;3.60;99.90;;;;;;5021036;28;20048;-66
2024/01/21 11:16:30;;;;;;;0.40;0.40;;;3.60;99.90;;;;;;5026961;28;20049;-65
2024/01/21 11:19:05;;;;;;;0.30;0.30;;;3.50;99.90;;;;;;5031252;28;20132;-66
2024/01/21 11:21:31;;;;;;;0.20;0.20;;;3.50;99.90;;;;;;5021388;28;20053;-66
2024/01/21 11:24:04;;;;;;;0.10;0.10;;;3.50;99.90;;;;;;5024702;28;20046;-66
2024/01/21 11:26:38;;;;;;;0.28;0.28;;;3.50;99.90;;;;;;5032079;28;20151;-66
2024/01/21 11:29:29;;;;;;;0.20;0.20;;;3.50;99.90;;;;;;5020230;28;20054;-66
2024/01/21 11:32:08;;;;;;;0.50;0.50;;;3.60;99.90;;;;;;5026485;28;20459;-66
2024/01/21 11:34:38;;;;;;;0.20;0.20;;;3.60;99.90;;;;;;5040769;28;20037;-66
2024/01/21 11:37:04;;;;;;;0.15;0.15;;;3.60;99.90;;;;;;5033671;28;20053;-66
2024/01/21 11:39:29;;;;;;;0.50;0.50;;;3.60;99.90;;;;;;5022103;28;20041;-65
2024/01/21 11:41:55;;;;;;;0.30;0.30;;;3.60;99.90;;;;;;5022482;28;20050;-65
2024/01/21 11:44:24;;;;;;;0.47;0.47;;;3.60;99.90;;;;;;5026609;28;20499;-66
2024/01/21 11:46:52;;;;;;;0.38;0.38;;;3.60;99.90;;;;;;5030883;28;20050;-66
2024/01/21 11:49:19;;;;;;;0.30;0.30;;;3.70;99.90;;;;;;5024232;28;20041;-66
2024/01/21 11:51:44;;;;;;;0.65;0.65;;;3.70;99.90;;;;;;5023544;28;20045;-65
2024/01/21 11:54:11;;;;;;;3.35;1.45;;;3.70;99.90;;;;;;5023798;28;20193;-66
2024/01/21 11:56:36;;;;;;;0.35;0.35;;;3.70;99.90;;;;;;5026605;28;20156;-66
2024/01/21 11:59:06;;;;;;;0.10;0.10;;;3.70;99.90;;;;;;5022345;28;20128;-66
2024/01/21 12:01:33;;;;;;;0.30;0.30;;;3.80;99.90;;;;;;5021873;28;20069;-66
2024/01/21 12:04:03;;;;;;;0.95;0.95;;;3.80;99.90;;;;;;5028493;28;20049;-66
2024/01/21 12:06:32;;;;;;;0.10;0.10;;;3.80;99.90;;;;;;5022047;28;20417;-66
2024/01/21 12:09:00;;;;;;;0.10;0.10;;;3.80;99.90;;;;;;5027532;28;20072;-66
2024/01/21 12:11:26;;;;;;;0.63;0.63;;;3.80;99.90;;;;;;5015596;28;20045;-66
2024/01/21 12:13:52;;;;;;;0.80;0.80;;;3.90;99.90;;;;;;5020850;28;20076;-66
2024/01/21 12:16:18;;;;;;;0.38;0.38;;;3.90;99.90;;;;;;5031119;28;20099;-66
2024/01/21 12:18:44;;;;;;;0.60;0.60;;;3.90;99.90;;;;;;5013944;28;20066;-66
2024/01/21 12:21:13;;;;;;;0.10;0.10;;;3.90;99.90;;;;;;5027560;28;20789;-66
2024/01/21 12:23:43;;;;;;;0.63;0.60;;;3.90;99.90;;;;;;5022737;28;20511;-66
2024/01/21 12:26:14;;;;;;;2.63;1.15;;;4.00;99.90;;;;;;5015915;28;20034;-66
2024/01/21 12:28:55;;;;;;;0.50;0.50;;;4.00;99.90;;;;;;5025357;28;20098;-66
2024/01/21 12:31:29;;;;;;;0.77;0.77;;;4.00;99.90;;;;;;5028859;28;20081;-66
2024/01/21 12:33:55;;;;;;;0.10;0.10;;;4.00;99.90;;;;;;5020703;28;20080;-66
2024/01/21 12:36:21;;;;;;;0.25;0.25;;;4.00;99.90;;;;;;5031319;28;20053;-66
2024/01/21 12:38:49;;;;;;;0.20;0.20;;;4.00;99.90;;;;;;5023709;28;20046;-66
2024/01/21 12:41:16;;;;;;;0.30;0.30;;;4.00;99.90;;;;;;5020503;28;20042;-66
2024/01/21 12:43:42;;;;;;;0.15;0.15;;;4.00;99.90;;;;;;5028090;28;20494;-66
2024/01/21 12:46:09;;;;;;;3.17;1.25;;;4.00;99.90;;;;;;5045271;28;20143;-66
2024/01/21 12:48:36;;;;;;;0.10;0.10;;;4.10;99.90;;;;;;5025809;28;20124;-66
2024/01/21 12:51:01;;;;;;;0.55;0.55;;;4.10;99.90;;;;;;5021831;28;20552;-67
2024/01/21 12:53:27;;;;;;;0.10;0.10;;;4.10;99.90;;;;;;5027221;28;20516;-67